createdAt,value
2018-03-20T00:00:01.365Z,83.22
2018-03-20T00:01:22.357Z,83.12
2018-03-20T00:02:01.334Z,82.93
2018-03-20T00:03:01.324Z,82.84
2018-03-20T00:04:22.299Z,82.93
2018-03-20T00:05:01.287Z,83.40
2018-03-20T00:06:22.266Z,83.03
2018-03-20T00:07:01.247Z,82.93
2018-03-20T00:08:01.229Z,83.12
2018-03-20T00:09:22.208Z,83.31
2018-03-20T00:10:01.189Z,83.50
2018-03-20T00:11:22.180Z,83.50
2018-03-20T00:12:01.153Z,83.31
2018-03-20T00:13:01.138Z,83.40
2018-03-20T00:14:22.122Z,83.40
2018-03-20T00:15:01.118Z,83.97
2018-03-20T00:16:22.086Z,83.97
2018-03-20T00:17:01.068Z,84.07
2018-03-20T00:18:01.053Z,83.69
2018-03-20T00:19:22.037Z,83.40
2018-03-20T00:20:01.018Z,84.07
2018-03-20T00:21:22.003Z,83.69
2018-03-20T00:22:00.981Z,83.50
2018-03-20T00:23:00.967Z,83.69
2018-03-20T00:24:21.947Z,83.40
2018-03-20T00:25:00.927Z,83.31
2018-03-20T00:26:21.916Z,83.12
2018-03-20T00:27:00.894Z,83.69
2018-03-20T00:28:00.872Z,83.59
2018-03-20T00:29:21.857Z,83.97
2018-03-20T00:30:00.840Z,83.40
2018-03-20T00:31:21.823Z,83.22
2018-03-20T00:32:00.803Z,83.59
2018-03-20T00:33:00.783Z,83.40
2018-03-20T00:34:21.767Z,83.97
2018-03-20T00:35:00.751Z,83.78
2018-03-20T00:36:21.731Z,83.40
2018-03-20T00:37:00.716Z,83.50
2018-03-20T00:38:00.695Z,83.31
2018-03-20T00:39:21.684Z,83.50
2018-03-20T00:40:00.658Z,83.50
2018-03-20T00:41:21.646Z,83.50
2018-03-20T00:42:00.624Z,83.69
2018-03-20T00:43:00.607Z,83.88
2018-03-20T00:44:21.597Z,83.50
2018-03-20T00:45:00.573Z,83.31
2018-03-20T00:46:21.555Z,83.40
2018-03-20T00:47:00.533Z,84.07
2018-03-20T00:48:00.519Z,83.40
2018-03-20T00:49:21.498Z,83.50
2018-03-20T00:50:00.483Z,83.40
2018-03-20T00:51:21.471Z,83.50
2018-03-20T00:52:00.444Z,83.50
2018-03-20T00:53:00.426Z,82.93
2018-03-20T00:54:21.410Z,83.40
2018-03-20T00:55:00.389Z,83.03
2018-03-20T00:56:21.376Z,83.12
2018-03-20T00:57:00.357Z,83.12
2018-03-20T00:58:00.344Z,83.12
2018-03-20T00:59:21.324Z,83.31
2018-03-20T01:00:00.306Z,83.22
2018-03-20T01:01:21.291Z,83.12
2018-03-20T01:02:00.266Z,83.12
2018-03-20T01:03:00.251Z,82.56
2018-03-20T01:04:21.235Z,82.93
2018-03-20T01:05:00.214Z,82.84
2018-03-20T01:06:21.198Z,82.93
2018-03-20T01:07:00.181Z,82.46
2018-03-20T01:08:00.164Z,82.84
2018-03-20T01:09:21.149Z,83.12
2018-03-20T01:10:00.126Z,83.22
2018-03-20T01:11:21.111Z,83.40
2018-03-20T01:12:00.100Z,83.31
2018-03-20T01:13:00.077Z,83.50
2018-03-20T01:14:21.052Z,83.40
2018-03-20T01:15:00.039Z,83.78
2018-03-20T01:16:21.021Z,83.40
2018-03-20T01:16:59.998Z,83.50
2018-03-20T01:17:59.983Z,83.59
2018-03-20T01:19:20.970Z,83.59
2018-03-20T01:19:59.945Z,83.59
2018-03-20T01:21:20.927Z,82.93
2018-03-20T01:21:59.914Z,83.12
2018-03-20T01:22:59.895Z,83.40
2018-03-20T01:24:20.877Z,83.22
2018-03-20T01:24:59.864Z,83.40
2018-03-20T01:26:20.848Z,83.03
2018-03-20T01:26:59.829Z,83.50
2018-03-20T01:27:59.809Z,83.12
2018-03-20T01:29:20.785Z,83.40
2018-03-20T01:29:59.771Z,83.50
2018-03-20T01:31:20.754Z,83.69
2018-03-20T01:31:59.731Z,83.59
2018-03-20T01:32:59.719Z,83.50
2018-03-20T01:34:20.702Z,83.78
2018-03-20T01:34:59.682Z,83.88
2018-03-20T01:36:20.662Z,83.69
2018-03-20T01:36:59.644Z,83.97
2018-03-20T01:37:59.627Z,83.97
2018-03-20T01:39:20.607Z,83.97
2018-03-20T01:39:59.592Z,83.78
2018-03-20T01:41:20.573Z,83.50
2018-03-20T01:41:59.559Z,83.31
2018-03-20T01:42:59.537Z,83.78
2018-03-20T01:44:20.514Z,83.12
2018-03-20T01:44:59.504Z,83.03
2018-03-20T01:46:20.484Z,83.31
2018-03-20T01:46:59.471Z,83.40
2018-03-20T01:47:59.455Z,83.12
2018-03-20T01:49:20.430Z,83.40
2018-03-20T01:49:59.410Z,83.31
2018-03-20T01:51:20.398Z,83.50
2018-03-20T01:51:59.378Z,83.69
2018-03-20T01:52:59.364Z,83.22
2018-03-20T01:54:20.342Z,83.12
2018-03-20T01:54:59.321Z,83.50
2018-03-20T01:56:20.306Z,83.22
2018-03-20T01:56:59.288Z,82.93
2018-03-20T01:57:59.266Z,83.12
2018-03-20T01:59:20.253Z,82.93
2018-03-20T01:59:59.235Z,83.03
2018-03-20T02:01:20.223Z,82.56
2018-03-20T02:01:59.199Z,82.56
2018-03-20T02:02:59.184Z,82.56
2018-03-20T02:04:20.165Z,82.46
2018-03-20T02:04:59.147Z,82.84
2018-03-20T02:06:20.130Z,82.84
2018-03-20T02:06:59.110Z,83.03
2018-03-20T02:07:59.089Z,83.22
2018-03-20T02:09:20.080Z,83.12
2018-03-20T02:09:59.056Z,83.74
2018-03-20T02:11:20.041Z,83.36
2018-03-20T02:11:59.020Z,84.03
2018-03-20T02:12:59.003Z,83.27
2018-03-20T02:14:19.982Z,84.03
2018-03-20T02:14:58.971Z,84.31
2018-03-20T02:16:19.953Z,84.59
2018-03-20T02:16:58.931Z,84.88
2018-03-20T02:17:58.912Z,84.59
2018-03-20T02:19:19.902Z,84.50
2018-03-20T02:19:58.878Z,84.69
2018-03-20T02:21:19.856Z,84.88
2018-03-20T02:21:58.839Z,84.41
2018-03-20T02:22:58.825Z,84.59
2018-03-20T02:24:19.807Z,85.35
2018-03-20T02:24:58.785Z,85.06
2018-03-20T02:26:19.770Z,85.16
2018-03-20T02:26:58.746Z,85.72
2018-03-20T02:27:58.736Z,85.63
2018-03-20T02:29:19.714Z,85.25
2018-03-20T02:29:58.700Z,85.06
2018-03-20T02:31:19.685Z,85.35
2018-03-20T02:31:58.662Z,84.78
2018-03-20T02:32:58.642Z,84.59
2018-03-20T02:34:19.626Z,84.69
2018-03-20T02:34:58.603Z,84.78
2018-03-20T02:36:19.588Z,84.97
2018-03-20T02:36:58.567Z,84.88
2018-03-20T02:37:58.554Z,84.50
2018-03-20T02:39:19.538Z,84.50
2018-03-20T02:39:58.511Z,84.41
2018-03-20T02:41:19.498Z,84.22
2018-03-20T02:41:58.480Z,83.93
2018-03-20T02:42:58.466Z,83.36
2018-03-20T02:44:19.448Z,83.36
2018-03-20T02:44:58.424Z,83.36
2018-03-20T02:46:19.408Z,83.36
2018-03-20T02:46:58.390Z,83.46
2018-03-20T02:47:58.372Z,84.03
2018-03-20T02:49:19.354Z,83.93
2018-03-20T02:49:58.329Z,83.84
2018-03-20T02:51:19.320Z,83.84
2018-03-20T02:51:58.297Z,83.46
2018-03-20T02:52:58.278Z,83.27
2018-03-20T02:54:19.266Z,83.46
2018-03-20T02:54:58.244Z,83.93
2018-03-20T02:56:19.225Z,84.31
2018-03-20T02:56:58.205Z,84.41
2018-03-20T02:57:58.192Z,84.41
2018-03-20T02:59:19.174Z,84.50
2018-03-20T02:59:58.155Z,84.69
2018-03-20T03:01:19.140Z,84.50
2018-03-20T03:01:58.118Z,84.78
2018-03-20T03:02:58.100Z,84.69
2018-03-20T03:04:19.084Z,84.50
2018-03-20T03:04:58.059Z,85.06
2018-03-20T03:06:19.053Z,84.59
2018-03-20T03:06:58.026Z,84.69
2018-03-20T03:07:58.005Z,84.69
2018-03-20T03:09:18.987Z,84.88
2018-03-20T03:09:57.968Z,84.78
2018-03-20T03:11:18.951Z,84.88
2018-03-20T03:11:57.931Z,84.41
2018-03-20T03:12:57.914Z,84.50
2018-03-20T03:14:18.907Z,84.50
2018-03-20T03:14:57.880Z,84.22
2018-03-20T03:16:18.863Z,83.46
2018-03-20T03:16:57.848Z,83.65
2018-03-20T03:17:57.838Z,84.03
2018-03-20T03:19:18.812Z,83.36
2018-03-20T03:19:57.796Z,83.31
2018-03-20T03:21:18.774Z,83.36
2018-03-20T03:21:57.749Z,82.99
2018-03-20T03:22:57.733Z,83.40
2018-03-20T03:24:18.721Z,82.84
2018-03-20T03:24:57.693Z,82.93
2018-03-20T03:26:18.690Z,82.93
2018-03-20T03:26:57.659Z,82.56
2018-03-20T03:27:57.643Z,82.28
2018-03-20T03:29:18.628Z,82.28
2018-03-20T03:29:57.614Z,82.37
2018-03-20T03:31:18.597Z,83.03
2018-03-20T03:31:57.574Z,82.89
2018-03-20T03:32:57.558Z,83.27
2018-03-20T03:34:18.538Z,83.08
2018-03-20T03:34:57.522Z,83.55
2018-03-20T03:36:18.502Z,83.36
2018-03-20T03:36:57.481Z,83.46
2018-03-20T03:37:57.459Z,83.36
2018-03-20T03:39:18.451Z,83.55
2018-03-20T03:39:57.429Z,84.03
2018-03-20T03:41:18.408Z,83.65
2018-03-20T03:41:57.389Z,83.46
2018-03-20T03:42:57.367Z,83.36
2018-03-20T03:44:18.361Z,83.74
2018-03-20T03:44:57.338Z,84.03
2018-03-20T03:46:18.324Z,84.31
2018-03-20T03:46:57.302Z,85.06
2018-03-20T03:47:57.309Z,84.69
2018-03-20T03:49:18.260Z,84.69
2018-03-20T03:49:57.254Z,84.59
2018-03-20T03:51:18.232Z,84.50
2018-03-20T03:51:57.209Z,84.50
2018-03-20T03:52:57.196Z,84.69
2018-03-20T03:54:18.174Z,84.88
2018-03-20T03:54:57.151Z,84.69
2018-03-20T03:56:18.136Z,84.69
2018-03-20T03:56:57.118Z,84.69
2018-03-20T03:57:57.098Z,84.78
2018-03-20T03:59:18.082Z,84.69
2018-03-20T03:59:57.065Z,84.69
2018-03-20T04:01:18.043Z,84.41
2018-03-20T04:01:57.025Z,84.50
2018-03-20T04:02:57.005Z,85.35
2018-03-20T04:04:17.991Z,85.16
2018-03-20T04:04:56.969Z,85.44
2018-03-20T04:06:17.956Z,86.10
2018-03-20T04:06:56.985Z,85.72
2018-03-20T04:07:56.920Z,86.67
2018-03-20T04:09:17.899Z,86.48
2018-03-20T04:09:56.877Z,86.29
2018-03-20T04:11:17.865Z,86.48
2018-03-20T04:11:56.846Z,87.05
2018-03-20T04:12:56.826Z,86.95
2018-03-20T04:14:17.812Z,87.24
2018-03-20T04:14:56.788Z,87.52
2018-03-20T04:16:17.774Z,87.05
2018-03-20T04:16:56.752Z,87.43
2018-03-20T04:17:56.733Z,87.33
2018-03-20T04:19:17.715Z,87.33
2018-03-20T04:19:56.695Z,86.76
2018-03-20T04:21:17.680Z,87.33
2018-03-20T04:21:56.659Z,87.33
2018-03-20T04:22:56.641Z,87.43
2018-03-20T04:24:17.623Z,87.33
2018-03-20T04:24:56.604Z,87.52
2018-03-20T04:26:17.590Z,87.52
2018-03-20T04:26:56.566Z,86.95
2018-03-20T04:27:56.552Z,87.24
2018-03-20T04:29:17.533Z,87.24
2018-03-20T04:29:56.518Z,87.43
2018-03-20T04:31:17.500Z,87.43
2018-03-20T04:31:56.478Z,87.24
2018-03-20T04:32:56.455Z,87.52
2018-03-20T04:34:17.441Z,87.62
2018-03-20T04:34:56.421Z,87.90
2018-03-20T04:36:17.402Z,88.28
2018-03-20T04:36:56.385Z,87.52
2018-03-20T04:37:56.362Z,87.52
2018-03-20T04:39:17.349Z,87.71
2018-03-20T04:39:56.321Z,88.09
2018-03-20T04:41:17.312Z,87.24
2018-03-20T04:41:56.290Z,88.09
2018-03-20T04:42:56.272Z,88.18
2018-03-20T04:44:17.258Z,87.52
2018-03-20T04:44:56.237Z,88.09
2018-03-20T04:46:17.217Z,87.14
2018-03-20T04:46:56.199Z,87.33
2018-03-20T04:47:56.173Z,87.90
2018-03-20T04:49:17.162Z,87.90
2018-03-20T04:49:56.142Z,87.80
2018-03-20T04:51:17.142Z,87.62
2018-03-20T04:51:56.104Z,87.90
2018-03-20T04:52:56.084Z,87.71
2018-03-20T04:54:17.069Z,87.99
2018-03-20T04:54:56.052Z,87.62
2018-03-20T04:56:17.037Z,87.33
2018-03-20T04:56:56.013Z,86.95
2018-03-20T04:57:55.994Z,87.24
2018-03-20T04:59:17.028Z,86.95
2018-03-20T04:59:55.955Z,86.86
2018-03-20T05:01:16.943Z,86.86
2018-03-20T05:01:55.917Z,86.86
2018-03-20T05:02:55.909Z,86.86
2018-03-20T05:04:16.881Z,87.05
2018-03-20T05:04:55.864Z,87.43
2018-03-20T05:06:16.852Z,87.14
2018-03-20T05:06:55.831Z,87.52
2018-03-20T05:07:55.810Z,87.52
2018-03-20T05:09:16.792Z,87.43
2018-03-20T05:09:55.780Z,87.52
2018-03-20T05:11:16.752Z,87.99
2018-03-20T05:11:55.736Z,87.80
2018-03-20T05:12:55.720Z,87.71
2018-03-20T05:14:16.700Z,87.52
2018-03-20T05:14:55.679Z,87.90
2018-03-20T05:16:16.659Z,87.90
2018-03-20T05:16:55.649Z,88.18
2018-03-20T05:17:55.627Z,87.33
2018-03-20T05:19:16.612Z,88.46
2018-03-20T05:19:55.594Z,88.09
2018-03-20T05:21:16.571Z,87.71
2018-03-20T05:21:55.547Z,87.71
2018-03-20T05:22:55.534Z,87.71
2018-03-20T05:24:16.518Z,88.28
2018-03-20T05:24:55.493Z,87.99
2018-03-20T05:26:16.478Z,87.24
2018-03-20T05:26:55.455Z,87.99
2018-03-20T05:27:55.439Z,88.37
2018-03-20T05:29:16.424Z,87.99
2018-03-20T05:29:55.404Z,88.09
2018-03-20T05:31:16.388Z,87.33
2018-03-20T05:31:55.368Z,88.09
2018-03-20T05:32:55.350Z,87.99
2018-03-20T05:34:16.336Z,87.90
2018-03-20T05:34:55.312Z,88.18
2018-03-20T05:36:16.292Z,87.62
2018-03-20T05:36:55.273Z,88.46
2018-03-20T05:37:55.259Z,88.28
2018-03-20T05:39:16.238Z,87.14
2018-03-20T05:39:55.213Z,87.52
2018-03-20T05:41:16.198Z,87.99
2018-03-20T05:41:55.221Z,87.80
2018-03-20T05:42:55.165Z,87.71
2018-03-20T05:44:16.143Z,87.14
2018-03-20T05:44:55.124Z,87.24
2018-03-20T05:46:16.112Z,87.52
2018-03-20T05:46:55.088Z,87.99
2018-03-20T05:47:55.068Z,87.33
2018-03-20T05:49:16.056Z,87.52
2018-03-20T05:49:55.029Z,87.43
2018-03-20T05:51:16.018Z,87.24
2018-03-20T05:51:54.994Z,87.05
2018-03-20T05:52:54.978Z,87.43
2018-03-20T05:54:15.960Z,87.05
2018-03-20T05:54:54.942Z,87.14
2018-03-20T05:56:15.927Z,87.52
2018-03-20T05:56:54.943Z,87.05
2018-03-20T05:57:54.884Z,86.76
2018-03-20T05:59:15.865Z,86.67
2018-03-20T05:59:54.850Z,86.95
2018-03-20T06:01:15.830Z,86.86
2018-03-20T06:01:54.810Z,86.76
2018-03-20T06:02:54.798Z,86.48
2018-03-20T06:04:15.778Z,86.38
2018-03-20T06:04:54.759Z,85.82
2018-03-20T06:06:15.784Z,85.82
2018-03-20T06:06:54.717Z,86.76
2018-03-20T06:07:54.704Z,86.48
2018-03-20T06:09:15.682Z,86.38
2018-03-20T06:09:54.662Z,86.38
2018-03-20T06:11:15.648Z,86.67
2018-03-20T06:11:54.634Z,86.57
2018-03-20T06:12:54.612Z,86.48
2018-03-20T06:14:15.595Z,86.57
2018-03-20T06:14:54.573Z,86.48
2018-03-20T06:16:15.554Z,86.48
2018-03-20T06:16:54.539Z,86.67
2018-03-20T06:17:54.522Z,86.76
2018-03-20T06:19:15.502Z,86.76
2018-03-20T06:19:54.475Z,86.38
2018-03-20T06:21:15.467Z,86.48
2018-03-20T06:21:54.488Z,86.43
2018-03-20T06:22:54.427Z,86.48
2018-03-20T06:24:15.416Z,86.01
2018-03-20T06:24:54.385Z,85.77
2018-03-20T06:26:15.373Z,85.49
2018-03-20T06:26:54.351Z,85.96
2018-03-20T06:27:54.333Z,85.86
2018-03-20T06:29:15.318Z,85.68
2018-03-20T06:29:54.300Z,85.20
2018-03-20T06:31:15.282Z,85.11
2018-03-20T06:31:54.259Z,85.39
2018-03-20T06:32:54.245Z,85.25
2018-03-20T06:34:15.233Z,85.11
2018-03-20T06:34:54.204Z,85.20
2018-03-20T06:36:15.194Z,85.06
2018-03-20T06:36:54.171Z,85.16
2018-03-20T06:37:54.154Z,85.01
2018-03-20T06:39:15.135Z,85.30
2018-03-20T06:39:54.118Z,85.11
2018-03-20T06:41:15.100Z,85.06
2018-03-20T06:41:54.083Z,85.20
2018-03-20T06:42:54.062Z,85.20
2018-03-20T06:44:15.043Z,85.20
2018-03-20T06:44:54.022Z,84.92
2018-03-20T06:46:15.007Z,85.11
2018-03-20T06:46:53.989Z,84.45
2018-03-20T06:47:53.971Z,84.35
2018-03-20T06:49:14.953Z,84.07
2018-03-20T06:49:53.938Z,84.07
2018-03-20T06:51:14.919Z,83.59
2018-03-20T06:51:53.896Z,83.78
2018-03-20T06:52:53.880Z,83.97
2018-03-20T06:54:14.866Z,83.50
2018-03-20T06:54:53.841Z,83.40
2018-03-20T06:56:14.827Z,84.26
2018-03-20T06:56:53.816Z,83.97
2018-03-20T06:57:53.792Z,84.35
2018-03-20T06:59:14.779Z,84.35
2018-03-20T06:59:53.752Z,84.64
2018-03-20T07:01:14.739Z,85.01
2018-03-20T07:01:53.716Z,84.82
2018-03-20T07:02:53.702Z,85.01
2018-03-20T07:04:14.684Z,84.35
2018-03-20T07:04:53.658Z,84.07
2018-03-20T07:06:14.717Z,83.69
2018-03-20T07:06:53.624Z,83.31
2018-03-20T07:07:53.609Z,83.40
2018-03-20T07:09:14.590Z,83.69
2018-03-20T07:09:53.572Z,83.40
2018-03-20T07:11:14.552Z,83.40
2018-03-20T07:11:53.538Z,83.59
2018-03-20T07:12:53.516Z,83.31
2018-03-20T07:14:14.503Z,83.50
2018-03-20T07:14:53.484Z,82.93
2018-03-20T07:16:14.465Z,82.84
2018-03-20T07:16:53.447Z,82.84
2018-03-20T07:17:53.430Z,82.28
2018-03-20T07:19:14.419Z,82.56
2018-03-20T07:19:53.395Z,82.56
2018-03-20T07:21:14.373Z,82.37
2018-03-20T07:21:53.364Z,81.42
2018-03-20T07:22:53.347Z,80.90
2018-03-20T07:24:14.322Z,81.18
2018-03-20T07:24:53.300Z,80.52
2018-03-20T07:26:14.290Z,79.86
2018-03-20T07:26:53.263Z,79.86
2018-03-20T07:27:53.253Z,79.10
2018-03-20T07:29:14.230Z,79.19
2018-03-20T07:29:53.217Z,78.53
2018-03-20T07:31:14.194Z,79.10
2018-03-20T07:31:53.172Z,78.53
2018-03-20T07:32:53.158Z,78.72
2018-03-20T07:34:14.144Z,78.44
2018-03-20T07:34:53.124Z,77.87
2018-03-20T07:36:14.110Z,77.87
2018-03-20T07:36:53.087Z,77.31
2018-03-20T07:37:53.071Z,77.69
2018-03-20T07:39:14.065Z,77.69
2018-03-20T07:39:53.057Z,77.02
2018-03-20T07:41:14.023Z,77.21
2018-03-20T07:41:52.999Z,77.02
2018-03-20T07:42:52.987Z,76.83
2018-03-20T07:44:13.975Z,76.93
2018-03-20T07:44:52.952Z,77.02
2018-03-20T07:46:13.937Z,76.55
2018-03-20T07:46:52.915Z,76.36
2018-03-20T07:47:52.900Z,76.45
2018-03-20T07:49:13.881Z,76.17
2018-03-20T07:49:52.876Z,75.98
2018-03-20T07:51:13.847Z,76.26
2018-03-20T07:51:52.832Z,75.98
2018-03-20T07:52:52.820Z,75.70
2018-03-20T07:54:13.799Z,75.93
2018-03-20T07:54:52.779Z,75.60
2018-03-20T07:56:13.763Z,75.70
2018-03-20T07:56:52.747Z,76.26
2018-03-20T07:57:52.728Z,75.89
2018-03-20T07:59:13.712Z,76.21
2018-03-20T07:59:52.692Z,76.26
2018-03-20T08:01:13.679Z,75.89
2018-03-20T08:01:52.664Z,76.17
2018-03-20T08:02:52.647Z,76.12
2018-03-20T08:04:13.629Z,76.97
2018-03-20T08:04:52.613Z,76.87
2018-03-20T08:06:13.601Z,76.40
2018-03-20T08:06:52.579Z,76.02
2018-03-20T08:07:52.605Z,76.21
2018-03-20T08:09:13.538Z,75.45
2018-03-20T08:09:52.520Z,75.45
2018-03-20T08:11:13.512Z,75.36
2018-03-20T08:11:52.488Z,74.22
2018-03-20T08:12:52.476Z,73.75
2018-03-20T08:14:13.456Z,73.85
2018-03-20T08:14:52.437Z,73.66
2018-03-20T08:16:13.428Z,73.18
2018-03-20T08:16:52.405Z,73.32
2018-03-20T08:17:52.401Z,72.94
2018-03-20T08:19:13.376Z,73.13
2018-03-20T08:19:52.354Z,73.03
2018-03-20T08:21:13.339Z,72.85
2018-03-20T08:21:52.323Z,72.75
2018-03-20T08:22:52.315Z,72.37
2018-03-20T08:24:13.293Z,72.47
2018-03-20T08:24:52.278Z,71.99
2018-03-20T08:26:13.258Z,71.52
2018-03-20T08:26:52.244Z,71.42
2018-03-20T08:27:52.231Z,70.48
2018-03-20T08:29:13.211Z,70.67
2018-03-20T08:29:52.189Z,70.86
2018-03-20T08:31:13.183Z,71.04
2018-03-20T08:31:52.158Z,71.04
2018-03-20T08:32:52.142Z,70.86
2018-03-20T08:34:13.130Z,70.86
2018-03-20T08:34:52.116Z,70.95
2018-03-20T08:36:13.095Z,71.04
2018-03-20T08:36:52.085Z,71.14
2018-03-20T08:37:52.064Z,71.04
2018-03-20T08:39:13.053Z,70.76
2018-03-20T08:39:52.028Z,70.67
2018-03-20T08:41:13.017Z,71.42
2018-03-20T08:41:51.997Z,71.23
2018-03-20T08:42:51.987Z,71.23
2018-03-20T08:44:12.972Z,71.42
2018-03-20T08:44:51.949Z,71.23
2018-03-20T08:46:12.946Z,71.33
2018-03-20T08:46:51.918Z,70.57
2018-03-20T08:47:51.906Z,70.86
2018-03-20T08:49:12.890Z,70.67
2018-03-20T08:49:51.868Z,70.76
2018-03-20T08:51:12.854Z,70.67
2018-03-20T08:51:51.843Z,70.95
2018-03-20T08:52:51.826Z,70.76
2018-03-20T08:54:12.810Z,70.23
2018-03-20T08:54:51.786Z,70.42
2018-03-20T08:56:12.770Z,70.23
2018-03-20T08:56:51.760Z,70.42
2018-03-20T08:57:51.743Z,69.38
2018-03-20T08:59:12.729Z,69.28
2018-03-20T08:59:51.711Z,69.00
2018-03-20T09:01:12.694Z,68.71
2018-03-20T09:01:51.680Z,68.90
2018-03-20T09:02:51.660Z,68.15
2018-03-20T09:04:12.642Z,68.43
2018-03-20T09:04:51.629Z,68.90
2018-03-20T09:06:12.655Z,68.43
2018-03-20T09:06:51.602Z,68.24
2018-03-20T09:07:51.583Z,68.81
2018-03-20T09:09:12.580Z,69.00
2018-03-20T09:09:51.553Z,68.77
2018-03-20T09:11:12.541Z,69.15
2018-03-20T09:11:51.523Z,69.72
2018-03-20T09:12:51.500Z,69.66
2018-03-20T09:14:12.492Z,69.34
2018-03-20T09:14:51.468Z,69.34
2018-03-20T09:16:12.464Z,70.01
2018-03-20T09:16:51.444Z,70.29
2018-03-20T09:17:51.439Z,70.86
2018-03-20T09:19:12.414Z,70.76
2018-03-20T09:19:51.396Z,69.72
2018-03-20T09:21:12.390Z,70.10
2018-03-20T09:21:51.364Z,69.72
2018-03-20T09:22:51.349Z,70.29
2018-03-20T09:24:12.333Z,70.39
2018-03-20T09:24:51.316Z,71.23
2018-03-20T09:26:12.305Z,71.48
2018-03-20T09:26:51.287Z,71.80
2018-03-20T09:27:51.273Z,73.32
2018-03-20T09:29:12.259Z,73.13
2018-03-20T09:29:51.278Z,73.13
2018-03-20T09:31:12.228Z,72.94
2018-03-20T09:31:51.206Z,72.75
2018-03-20T09:32:51.190Z,72.37
2018-03-20T09:34:12.182Z,71.90
2018-03-20T09:34:51.165Z,71.04
2018-03-20T09:36:12.149Z,71.61
2018-03-20T09:36:51.124Z,70.39
2018-03-20T09:37:51.114Z,70.23
2018-03-20T09:39:12.098Z,69.85
2018-03-20T09:39:51.082Z,69.57
2018-03-20T09:41:12.064Z,69.66
2018-03-20T09:41:51.051Z,69.19
2018-03-20T09:42:51.032Z,69.09
2018-03-20T09:44:12.020Z,68.81
2018-03-20T09:44:51.002Z,68.33
2018-03-20T09:46:11.989Z,68.52
2018-03-20T09:46:50.971Z,68.33
2018-03-20T09:47:50.955Z,68.24
2018-03-20T09:49:11.950Z,68.71
2018-03-20T09:49:50.925Z,68.71
2018-03-20T09:51:11.913Z,69.47
2018-03-20T09:51:50.895Z,69.47
2018-03-20T09:52:50.874Z,69.47
2018-03-20T09:54:11.864Z,69.66
2018-03-20T09:54:50.844Z,69.57
2018-03-20T09:56:11.828Z,69.47
2018-03-20T09:56:50.819Z,69.57
2018-03-20T09:57:50.797Z,69.19
2018-03-20T09:59:11.782Z,69.38
2018-03-20T09:59:50.768Z,69.28
2018-03-20T10:01:11.757Z,69.72
2018-03-20T10:01:50.734Z,69.38
2018-03-20T10:02:50.727Z,70.14
2018-03-20T10:04:11.711Z,69.76
2018-03-20T10:04:50.686Z,69.19
2018-03-20T10:06:11.676Z,69.47
2018-03-20T10:06:50.656Z,69.38
2018-03-20T10:07:50.642Z,69.38
2018-03-20T10:09:11.628Z,69.19
2018-03-20T10:09:50.617Z,69.28
2018-03-20T10:11:11.601Z,69.28
2018-03-20T10:11:50.579Z,69.38
2018-03-20T10:12:50.568Z,69.38
2018-03-20T10:14:11.557Z,68.90
2018-03-20T10:14:50.531Z,69.19
2018-03-20T10:16:11.526Z,69.38
2018-03-20T10:16:50.502Z,69.38
2018-03-20T10:17:50.484Z,69.38
2018-03-20T10:19:11.478Z,69.09
2018-03-20T10:19:50.454Z,69.00
2018-03-20T10:21:11.443Z,69.00
2018-03-20T10:21:50.428Z,68.71
2018-03-20T10:22:50.406Z,68.43
2018-03-20T10:24:11.402Z,68.33
2018-03-20T10:24:50.379Z,68.71
2018-03-20T10:26:11.371Z,69.25
2018-03-20T10:26:50.345Z,69.34
2018-03-20T10:27:50.333Z,69.34
2018-03-20T10:29:11.323Z,69.91
2018-03-20T10:29:50.297Z,69.82
2018-03-20T10:31:11.292Z,70.48
2018-03-20T10:31:50.270Z,70.48
2018-03-20T10:32:50.252Z,70.86
2018-03-20T10:34:11.248Z,70.95
2018-03-20T10:34:50.223Z,70.01
2018-03-20T10:36:11.205Z,69.63
2018-03-20T10:36:50.190Z,70.39
2018-03-20T10:37:50.175Z,69.63
2018-03-20T10:39:11.160Z,69.82
2018-03-20T10:39:50.147Z,70.57
2018-03-20T10:41:11.131Z,70.39
2018-03-20T10:41:50.116Z,70.57
2018-03-20T10:42:50.095Z,70.67
2018-03-20T10:44:11.081Z,71.58
2018-03-20T10:44:50.067Z,71.30
2018-03-20T10:46:11.057Z,72.14
2018-03-20T10:46:50.045Z,73.28
2018-03-20T10:47:50.017Z,72.90
2018-03-20T10:49:11.006Z,73.75
2018-03-20T10:49:49.988Z,74.22
2018-03-20T10:51:10.976Z,73.66
2018-03-20T10:51:49.953Z,73.85
2018-03-20T10:52:49.934Z,74.41
2018-03-20T10:54:10.922Z,73.94
2018-03-20T10:54:49.911Z,73.75
2018-03-20T10:56:10.888Z,73.75
2018-03-20T10:56:49.876Z,74.22
2018-03-20T10:57:49.860Z,73.66
2018-03-20T10:59:10.847Z,73.47
2018-03-20T10:59:49.829Z,73.56
2018-03-20T11:01:10.814Z,74.22
2018-03-20T11:01:49.794Z,74.32
2018-03-20T11:02:49.780Z,74.41
2018-03-20T11:04:10.761Z,73.85
2018-03-20T11:04:49.742Z,73.94
2018-03-20T11:06:10.738Z,73.18
2018-03-20T11:06:49.708Z,73.03
2018-03-20T11:07:49.689Z,71.80
2018-03-20T11:09:10.681Z,71.04
2018-03-20T11:09:49.658Z,70.86
2018-03-20T11:11:10.658Z,70.01
2018-03-20T11:11:49.630Z,69.91
2018-03-20T11:12:49.613Z,69.82
2018-03-20T11:14:10.605Z,69.53
2018-03-20T11:14:49.589Z,69.15
2018-03-20T11:16:10.603Z,68.90
2018-03-20T11:16:49.552Z,69.09
2018-03-20T11:17:49.531Z,68.62
2018-03-20T11:19:10.528Z,67.96
2018-03-20T11:19:49.499Z,67.86
2018-03-20T11:21:10.485Z,67.49
2018-03-20T11:21:49.469Z,67.30
2018-03-20T11:22:49.452Z,67.39
2018-03-20T11:24:10.446Z,67.58
2018-03-20T11:24:49.416Z,67.39
2018-03-20T11:26:10.413Z,67.80
2018-03-20T11:26:49.394Z,67.24
2018-03-20T11:27:49.369Z,66.47
2018-03-20T11:29:10.362Z,66.28
2018-03-20T11:29:49.353Z,66.76
2018-03-20T11:31:10.334Z,66.28
2018-03-20T11:31:49.316Z,65.25
2018-03-20T11:32:49.293Z,64.96
2018-03-20T11:34:10.284Z,64.49
2018-03-20T11:34:49.267Z,64.68
2018-03-20T11:36:10.253Z,64.68
2018-03-20T11:36:49.236Z,64.77
2018-03-20T11:37:49.219Z,65.63
2018-03-20T11:39:10.213Z,65.63
2018-03-20T11:39:49.189Z,65.72
2018-03-20T11:41:10.177Z,66.00
2018-03-20T11:41:49.164Z,64.96
2018-03-20T11:42:49.143Z,64.68
2018-03-20T11:44:10.133Z,64.39
2018-03-20T11:44:49.113Z,64.11
2018-03-20T11:46:10.100Z,64.11
2018-03-20T11:46:49.086Z,64.11
2018-03-20T11:47:49.066Z,64.11
2018-03-20T11:49:10.054Z,64.20
2018-03-20T11:49:49.044Z,64.20
2018-03-20T11:51:10.029Z,63.64
2018-03-20T11:51:49.010Z,63.54
2018-03-20T11:52:48.993Z,63.35
2018-03-20T11:54:09.983Z,63.73
2018-03-20T11:54:48.963Z,63.45
2018-03-20T11:56:09.948Z,63.45
2018-03-20T11:56:48.933Z,63.54
2018-03-20T11:57:48.915Z,64.49
2018-03-20T11:59:09.906Z,64.20
2018-03-20T11:59:48.887Z,64.01
2018-03-20T12:01:09.887Z,64.68
2018-03-20T12:01:48.876Z,64.96
2018-03-20T12:02:48.847Z,65.25
2018-03-20T12:04:09.834Z,64.83
2018-03-20T12:04:48.850Z,65.12
2018-03-20T12:06:09.805Z,65.63
2018-03-20T12:06:48.781Z,65.40
2018-03-20T12:07:48.772Z,65.59
2018-03-20T12:09:10.651Z,65.40
2018-03-20T12:09:48.741Z,65.21
2018-03-20T12:11:09.728Z,65.12
2018-03-20T12:11:48.705Z,65.21
2018-03-20T12:12:48.691Z,66.16
2018-03-20T12:14:09.696Z,66.35
2018-03-20T12:14:48.667Z,66.63
2018-03-20T12:16:09.649Z,66.35
2018-03-20T12:16:48.637Z,66.35
2018-03-20T12:17:48.623Z,66.35
2018-03-20T12:19:09.609Z,66.82
2018-03-20T12:19:48.635Z,67.49
2018-03-20T12:21:09.577Z,67.49
2018-03-20T12:21:48.566Z,67.30
2018-03-20T12:22:48.545Z,67.49
2018-03-20T12:24:09.531Z,67.49
2018-03-20T12:24:48.508Z,67.64
2018-03-20T12:26:09.498Z,67.93
2018-03-20T12:26:48.482Z,68.77
2018-03-20T12:27:48.466Z,68.49
2018-03-20T12:29:09.455Z,68.49
2018-03-20T12:29:48.440Z,68.77
2018-03-20T12:31:09.429Z,69.72
2018-03-20T12:31:48.408Z,70.10
2018-03-20T12:32:48.392Z,70.39
2018-03-20T12:34:09.382Z,69.78
2018-03-20T12:34:48.362Z,69.72
2018-03-20T12:36:09.352Z,70.20
2018-03-20T12:36:48.333Z,70.63
2018-03-20T12:37:48.358Z,70.44
2018-03-20T12:39:09.301Z,70.10
2018-03-20T12:39:48.287Z,70.29
2018-03-20T12:41:09.270Z,70.57
2018-03-20T12:41:48.251Z,69.63
2018-03-20T12:42:48.234Z,69.34
2018-03-20T12:44:09.220Z,69.25
2018-03-20T12:44:48.210Z,69.53
2018-03-20T12:46:09.195Z,69.15
2018-03-20T12:46:48.230Z,69.53
2018-03-20T12:47:48.156Z,69.44
2018-03-20T12:49:09.152Z,69.34
2018-03-20T12:49:48.132Z,68.87
2018-03-20T12:51:09.115Z,68.87
2018-03-20T12:51:48.100Z,67.93